Time;durP1;ratioP1;P1;durP2;ratioP2;P2;SDS_P1;SDS_P2;PMS_P1;PMS_P2;Temp;Humidity;BMP_temperature;BMP_pressure;BME280_temperature;BME280_humidity;BME280_pressure;Samples;Min_cycle;Max_cycle;Signal;HPM_P1;HPM_P2
2022/02/25 00:00:33;;;;;;;10.15;2.72;;;4.50;94.10;;;;;;5012597;28;25094;-80
2022/02/25 00:02:59;;;;;;;15.02;2.85;;;4.50;94.20;;;;;;5003923;28;25103;-74
2022/02/25 00:05:25;;;;;;;14.20;2.17;;;4.50;94.20;;;;;;4994892;28;25056;-75
2022/02/25 00:07:51;;;;;;;10.88;2.30;;;4.40;94.10;;;;;;4993104;28;25093;-74
2022/02/25 00:10:16;;;;;;;13.18;2.33;;;4.50;94.20;;;;;;4974507;28;25068;-75
2022/02/25 00:12:42;;;;;;;12.63;2.42;;;4.40;94.30;;;;;;4995017;28;25092;-75
2022/02/25 00:15:07;;;;;;;22.40;2.65;;;4.40;94.40;;;;;;5010113;28;25085;-73
2022/02/25 00:17:33;;;;;;;14.70;2.63;;;4.30;94.60;;;;;;5011474;28;25073;-75
2022/02/25 00:19:58;;;;;;;12.25;3.22;;;4.30;94.70;;;;;;5013508;28;25058;-74
2022/02/25 00:22:24;;;;;;;9.43;1.90;;;4.30;95.00;;;;;;5014152;28;25080;-78
2022/02/25 00:24:50;;;;;;;15.07;2.60;;;4.30;95.00;;;;;;5004619;28;25149;-74
2022/02/25 00:27:16;;;;;;;12.25;2.28;;;4.30;95.40;;;;;;5012802;28;25086;-75
2022/02/25 00:29:41;;;;;;;11.48;2.55;;;4.30;95.30;;;;;;5016293;28;25068;-76
2022/02/25 00:32:07;;;;;;;14.35;2.78;;;4.30;95.50;;;;;;5031227;28;25077;-76
2022/02/25 00:34:33;;;;;;;8.45;2.20;;;4.30;95.60;;;;;;5032617;28;25065;-75
2022/02/25 00:36:58;;;;;;;17.00;2.95;;;4.30;95.80;;;;;;5017765;28;25064;-75
2022/02/25 00:39:24;;;;;;;24.20;3.63;;;4.30;96.00;;;;;;4995165;28;25064;-75
2022/02/25 00:41:50;;;;;;;16.48;2.40;;;4.20;96.00;;;;;;5012396;28;25083;-76
2022/02/25 00:44:15;;;;;;;18.83;3.75;;;4.30;96.20;;;;;;5012242;28;25084;-75
2022/02/25 00:46:41;;;;;;;14.18;3.63;;;4.30;96.20;;;;;;5011576;28;25079;-75
2022/02/25 00:49:07;;;;;;;14.70;3.58;;;4.30;96.30;;;;;;4995991;28;25069;-75
2022/02/25 00:51:33;;;;;;;10.80;2.47;;;4.30;96.20;;;;;;5015558;28;25086;-76
2022/02/25 00:53:58;;;;;;;13.23;2.72;;;4.30;96.20;;;;;;5014680;28;25097;-78
2022/02/25 00:56:24;;;;;;;17.95;2.90;;;4.30;96.30;;;;;;5014370;28;25083;-76
2022/02/25 00:58:53;;;;;;;15.32;3.08;;;4.30;96.20;;;;;;5017491;28;25068;-74
2022/02/25 01:01:18;;;;;;;14.82;2.50;;;4.30;96.40;;;;;;5014806;28;25066;-74
2022/02/25 01:03:44;;;;;;;13.65;2.97;;;4.30;96.50;;;;;;5014920;28;25067;-74
2022/02/25 01:06:11;;;;;;;16.55;2.90;;;4.30;96.30;;;;;;5013159;28;25061;-74
2022/02/25 01:08:36;;;;;;;14.23;3.13;;;4.30;96.40;;;;;;5012524;28;25090;-76
2022/02/25 01:11:02;;;;;;;15.02;3.08;;;4.30;96.20;;;;;;5013042;28;25081;-75
2022/02/25 01:13:28;;;;;;;21.50;3.00;;;4.30;96.10;;;;;;5013560;28;25105;-76
2022/02/25 01:15:53;;;;;;;19.90;3.10;;;4.30;96.30;;;;;;5002776;28;25061;-76
2022/02/25 01:18:20;;;;;;;17.83;3.38;;;4.30;96.20;;;;;;5012893;28;25107;-76
2022/02/25 01:20:45;;;;;;;18.27;3.65;;;4.30;96.20;;;;;;4997029;28;25078;-75
2022/02/25 01:23:11;;;;;;;19.13;3.15;;;4.30;96.00;;;;;;5014576;28;25070;-76
2022/02/25 01:25:38;;;;;;;18.13;3.30;;;4.30;96.00;;;;;;5015120;28;25061;-74
2022/02/25 01:28:03;;;;;;;12.23;2.40;;;4.30;96.10;;;;;;5014855;28;25096;-75
2022/02/25 01:30:29;;;;;;;10.88;2.30;;;4.30;96.20;;;;;;5017034;28;25102;-75
2022/02/25 01:32:54;;;;;;;17.10;2.78;;;4.30;96.10;;;;;;5015328;28;25167;-77
2022/02/25 01:35:20;;;;;;;16.73;2.90;;;4.40;96.00;;;;;;5014906;28;25066;-76
2022/02/25 01:37:46;;;;;;;20.33;3.10;;;4.40;96.20;;;;;;5017306;28;25068;-75
2022/02/25 01:40:12;;;;;;;14.48;2.90;;;4.40;96.20;;;;;;5019320;28;25060;-78
2022/02/25 01:42:46;;;;;;;9.35;2.20;;;4.50;96.20;;;;;;5023180;28;25075;-75
2022/02/25 01:45:11;;;;;;;13.38;2.90;;;4.40;96.20;;;;;;5024433;28;25103;-73
2022/02/25 01:47:38;;;;;;;11.68;3.08;;;4.40;96.50;;;;;;5025041;28;25061;-75
2022/02/25 01:50:04;;;;;;;18.25;3.33;;;4.40;96.60;;;;;;5016770;28;25047;-76
2022/02/25 01:52:30;;;;;;;23.08;4.15;;;4.30;97.20;;;;;;5022608;28;25067;-77
2022/02/25 01:54:55;;;;;;;21.40;2.47;;;4.40;97.70;;;;;;5021119;28;25067;-75
2022/02/25 01:57:21;;;;;;;11.52;2.63;;;4.40;97.70;;;;;;5021440;28;25060;-74
2022/02/25 01:59:46;;;;;;;14.18;2.83;;;4.40;97.70;;;;;;5016112;28;25070;-74
2022/02/25 02:02:12;;;;;;;17.55;3.30;;;4.40;97.70;;;;;;5017461;28;25092;-77
2022/02/25 02:04:38;;;;;;;14.63;2.65;;;4.40;97.90;;;;;;5013702;28;25067;-76
2022/02/25 02:07:04;;;;;;;24.77;2.80;;;4.40;98.00;;;;;;5014036;28;25073;-74
2022/02/25 02:09:29;;;;;;;15.95;2.67;;;4.40;98.00;;;;;;5016398;28;25059;-74
2022/02/25 02:11:55;;;;;;;18.60;3.33;;;4.40;97.90;;;;;;5013330;28;25164;-75
2022/02/25 02:14:23;;;;;;;14.43;2.55;;;4.40;98.20;;;;;;5014288;28;25135;-75
2022/02/25 02:16:51;;;;;;;12.95;2.70;;;4.40;98.20;;;;;;4997818;28;25075;-75
2022/02/25 02:19:18;;;;;;;20.52;3.00;;;4.30;98.40;;;;;;5014926;28;25058;-75
2022/02/25 02:21:46;;;;;;;17.38;3.13;;;4.30;98.70;;;;;;5013978;28;25084;-76
2022/02/25 02:24:13;;;;;;;16.00;3.60;;;4.30;98.90;;;;;;5012858;28;25073;-77
2022/02/25 02:26:40;;;;;;;19.52;3.03;;;4.30;98.80;;;;;;5013132;28;25089;-75
2022/02/25 02:29:06;;;;;;;20.02;3.38;;;4.20;99.00;;;;;;5013120;28;25069;-76
2022/02/25 02:31:32;;;;;;;13.25;2.95;;;4.20;99.20;;;;;;5012300;28;25051;-75
2022/02/25 02:33:59;;;;;;;19.20;3.83;;;4.20;99.50;;;;;;5010938;28;25075;-77
2022/02/25 02:36:24;;;;;;;17.90;3.05;;;4.20;99.50;;;;;;5012585;28;25169;-76
2022/02/25 02:38:50;;;;;;;17.20;4.20;;;4.20;99.60;;;;;;5012645;28;25080;-76
2022/02/25 02:41:16;;;;;;;15.00;3.15;;;4.10;99.50;;;;;;5013102;28;25065;-75
2022/02/25 02:43:42;;;;;;;15.52;4.03;;;4.00;99.50;;;;;;5009273;28;25106;-76
2022/02/25 02:46:08;;;;;;;17.83;3.97;;;3.90;99.50;;;;;;5009507;28;25135;-76
2022/02/25 02:48:35;;;;;;;16.80;3.20;;;3.90;99.70;;;;;;5009425;28;25075;-76
2022/02/25 02:51:01;;;;;;;9.15;3.00;;;3.80;99.90;;;;;;5005730;28;25092;-76
2022/02/25 02:53:27;;;;;;;13.18;3.22;;;3.70;99.90;;;;;;5007671;28;25074;-76
2022/02/25 02:55:52;;;;;;;19.35;4.15;;;3.70;99.90;;;;;;5011061;28;25071;-76
2022/02/25 02:58:18;;;;;;;15.02;3.00;;;3.60;99.90;;;;;;5010263;28;25148;-75
2022/02/25 03:00:45;;;;;;;13.73;3.33;;;3.60;99.90;;;;;;5010731;28;25116;-75
2022/02/25 03:03:11;;;;;;;15.18;3.58;;;3.60;99.90;;;;;;5009981;28;25042;-75
2022/02/25 03:05:37;;;;;;;16.77;3.70;;;3.50;99.90;;;;;;4998432;28;25061;-77
2022/02/25 03:08:04;;;;;;;26.92;3.97;;;3.50;99.90;;;;;;4990879;28;25073;-75
2022/02/25 03:10:31;;;;;;;11.27;3.30;;;3.50;99.90;;;;;;5008692;28;25154;-75
2022/02/25 03:12:57;;;;;;;14.13;3.38;;;3.50;99.90;;;;;;5009326;28;25059;-75
2022/02/25 03:15:22;;;;;;;19.73;3.67;;;3.50;99.90;;;;;;4997054;28;25127;-74
2022/02/25 03:17:48;;;;;;;14.43;3.42;;;3.50;99.90;;;;;;5033386;28;25064;-76
2022/02/25 03:20:14;;;;;;;18.13;3.28;;;3.50;99.90;;;;;;5030604;28;25063;-74
2022/02/25 03:22:40;;;;;;;14.23;3.28;;;3.50;99.90;;;;;;5020538;28;25059;-75
2022/02/25 03:25:06;;;;;;;21.85;4.57;;;3.50;99.90;;;;;;5015386;28;25081;-76
2022/02/25 03:27:32;;;;;;;14.38;3.92;;;3.40;99.90;;;;;;5013771;28;25109;-75
2022/02/25 03:29:58;;;;;;;15.23;3.40;;;3.50;99.90;;;;;;5012331;28;25114;-75
2022/02/25 03:32:24;;;;;;;20.80;4.68;;;3.40;99.90;;;;;;4995741;28;25143;-75
2022/02/25 03:34:51;;;;;;;20.63;3.55;;;3.50;99.90;;;;;;5012812;28;25060;-76
2022/02/25 03:37:17;;;;;;;14.95;3.03;;;3.50;99.90;;;;;;4996669;28;25141;-75
2022/02/25 03:39:43;;;;;;;17.83;2.90;;;3.50;99.90;;;;;;4992680;28;25062;-75
2022/02/25 03:42:09;;;;;;;14.95;3.47;;;3.50;99.90;;;;;;5002625;28;25110;-77
2022/02/25 03:44:35;;;;;;;18.98;4.25;;;3.50;99.90;;;;;;5011840;28;25082;-74
2022/02/25 03:47:01;;;;;;;18.98;3.08;;;3.50;99.90;;;;;;5011975;28;25121;-74
2022/02/25 03:49:26;;;;;;;17.40;3.28;;;3.50;99.90;;;;;;5000246;28;25077;-76
2022/02/25 03:51:53;;;;;;;24.35;5.10;;;3.50;99.90;;;;;;4999725;28;25114;-75
2022/02/25 03:54:19;;;;;;;20.23;3.28;;;3.50;99.90;;;;;;5002533;28;25068;-74
2022/02/25 03:56:45;;;;;;;23.88;3.33;;;3.50;99.90;;;;;;4986341;28;25144;-75
2022/02/25 03:59:10;;;;;;;29.25;4.15;;;3.50;99.90;;;;;;5003960;28;25062;-76
2022/02/25 04:01:36;;;;;;;22.75;3.38;;;3.50;99.90;;;;;;5000613;28;25077;-77
2022/02/25 04:04:02;;;;;;;23.00;3.95;;;3.50;99.90;;;;;;5005132;28;25143;-76
2022/02/25 04:06:27;;;;;;;23.98;3.33;;;3.50;99.90;;;;;;5016354;28;25055;-75
2022/02/25 04:08:54;;;;;;;23.45;4.15;;;3.50;99.90;;;;;;5018481;28;25109;-74
2022/02/25 04:11:21;;;;;;;20.58;4.38;;;3.60;99.90;;;;;;5012486;28;25072;-75
2022/02/25 04:13:47;;;;;;;14.45;3.63;;;3.60;99.90;;;;;;5012002;28;25084;-76
2022/02/25 04:16:14;;;;;;;29.90;4.10;;;3.60;99.90;;;;;;4993465;28;25099;-75
2022/02/25 04:18:40;;;;;;;16.75;3.60;;;3.60;99.90;;;;;;5010573;28;25061;-74
2022/02/25 04:21:06;;;;;;;20.88;4.00;;;3.70;99.90;;;;;;5010723;28;25067;-75
2022/02/25 04:23:32;;;;;;;18.77;3.60;;;3.70;99.90;;;;;;5009854;28;25055;-74
2022/02/25 04:25:57;;;;;;;24.00;3.88;;;3.80;99.90;;;;;;5011716;28;25070;-75
2022/02/25 04:28:23;;;;;;;21.17;4.20;;;3.90;99.90;;;;;;5011465;28;25086;-75
2022/02/25 04:30:48;;;;;;;23.77;4.35;;;3.90;99.90;;;;;;5010316;28;25094;-75
2022/02/25 04:33:14;;;;;;;26.10;4.22;;;4.00;99.90;;;;;;4993154;28;25156;-73
2022/02/25 04:35:42;;;;;;;24.00;4.70;;;4.10;99.90;;;;;;4976750;28;25098;-74
2022/02/25 04:38:08;;;;;;;21.75;3.58;;;4.10;99.90;;;;;;5009894;28;25148;-77
2022/02/25 04:40:35;;;;;;;23.50;4.13;;;4.20;99.90;;;;;;5010817;28;25066;-76
2022/02/25 04:43:02;;;;;;;22.30;4.13;;;4.20;99.90;;;;;;4992266;28;25139;-74
2022/02/25 04:45:27;;;;;;;21.00;4.30;;;4.20;99.90;;;;;;5010872;28;25128;-75
2022/02/25 04:47:55;;;;;;;19.42;3.72;;;4.20;99.90;;;;;;5009848;28;25107;-76
2022/02/25 04:50:21;;;;;;;18.13;4.25;;;4.20;99.90;;;;;;5010483;28;25065;-73
2022/02/25 04:52:47;;;;;;;26.20;3.78;;;4.20;99.90;;;;;;5009921;28;25146;-75
2022/02/25 04:55:13;;;;;;;25.20;3.97;;;4.20;99.90;;;;;;5009154;28;25104;-76
2022/02/25 04:57:39;;;;;;;26.75;4.20;;;4.30;99.90;;;;;;5009712;28;25098;-75
2022/02/25 05:00:10;;;;;;;26.85;4.43;;;4.30;99.90;;;;;;5009787;28;25091;-75
2022/02/25 05:02:39;;;;;;;32.17;5.07;;;4.30;99.90;;;;;;4978720;28;25064;-74
2022/02/25 05:05:06;;;;;;;22.83;3.72;;;4.30;99.90;;;;;;5015252;28;26184;-74
2022/02/25 05:07:31;;;;;;;28.30;4.15;;;4.40;99.90;;;;;;5008872;28;25064;-74
2022/02/25 05:09:57;;;;;;;25.25;5.50;;;4.30;99.90;;;;;;5010748;28;25088;-76
2022/02/25 05:12:23;;;;;;;16.08;4.82;;;4.30;99.90;;;;;;5012896;28;25052;-76
2022/02/25 05:20:23;;;;;;;25.70;4.80;;;4.40;99.90;;;;;;4997462;28;25068;-76
2022/02/25 05:22:50;;;;;;;;;;;4.40;99.90;;;;;;5003457;28;25062;-76
2022/02/25 05:25:16;;;;;;;27.15;5.28;;;4.40;99.90;;;;;;5005353;28;24086;-76
2022/02/25 05:27:42;;;;;;;23.67;5.03;;;4.30;99.90;;;;;;5011662;28;25080;-75
2022/02/25 05:30:09;;;;;;;28.10;5.55;;;4.20;99.90;;;;;;5013916;28;25070;-76
2022/02/25 05:32:34;;;;;;;44.80;5.10;;;4.20;99.90;;;;;;5025964;28;25082;-74
2022/02/25 05:35:01;;;;;;;19.27;4.53;;;4.10;99.90;;;;;;5036711;28;25067;-76
2022/02/25 05:37:26;;;;;;;27.65;4.15;;;4.10;99.90;;;;;;5035896;28;25059;-76
2022/02/25 05:39:52;;;;;;;23.20;4.15;;;4.10;99.90;;;;;;5014595;28;25079;-78
2022/02/25 05:42:18;;;;;;;24.05;3.95;;;4.00;99.90;;;;;;5029167;28;25115;-76
2022/02/25 05:44:44;;;;;;;39.08;4.78;;;4.00;99.90;;;;;;5018763;28;25069;-75
2022/02/25 05:47:10;;;;;;;24.90;4.03;;;4.10;99.90;;;;;;5011959;28;25127;-76
2022/02/25 05:49:35;;;;;;;19.50;3.80;;;4.10;99.90;;;;;;5013394;28;25117;-74
2022/02/25 05:52:01;;;;;;;27.77;4.47;;;4.20;99.90;;;;;;5007865;28;25070;-76
2022/02/25 05:54:26;;;;;;;21.00;4.45;;;4.20;99.90;;;;;;5011109;28;25076;-76
2022/02/25 05:56:52;;;;;;;31.83;5.18;;;4.30;99.90;;;;;;4993575;28;25066;-74
2022/02/25 05:59:17;;;;;;;30.95;5.82;;;4.40;99.90;;;;;;5013603;28;25091;-75
2022/02/25 06:01:43;;;;;;;26.88;4.97;;;4.40;99.90;;;;;;5019382;28;25079;-77
2022/02/25 06:04:09;;;;;;;32.13;5.85;;;4.40;99.90;;;;;;5015714;28;25080;-76
2022/02/25 06:06:35;;;;;;;35.50;5.15;;;4.50;99.90;;;;;;5034633;28;25077;-76
2022/02/25 06:09:00;;;;;;;39.05;5.05;;;4.50;99.90;;;;;;5035042;28;25093;-76
2022/02/25 06:11:26;;;;;;;35.08;5.22;;;4.60;99.90;;;;;;5033989;28;25063;-76
2022/02/25 06:13:52;;;;;;;31.52;4.90;;;4.60;99.90;;;;;;5023152;28;25060;-73
2022/02/25 06:16:17;;;;;;;30.40;5.38;;;4.60;99.90;;;;;;5029618;28;25072;-72
2022/02/25 06:18:43;;;;;;;25.52;4.97;;;4.70;99.90;;;;;;5026329;28;25087;-75
2022/02/25 06:21:09;;;;;;;25.95;4.40;;;4.80;99.90;;;;;;5017341;28;25089;-75
2022/02/25 06:23:35;;;;;;;28.23;4.45;;;4.80;99.90;;;;;;5022141;28;25078;-72
2022/02/25 06:26:01;;;;;;;20.90;5.18;;;4.90;99.90;;;;;;5022329;28;25075;-74
2022/02/25 06:28:26;;;;;;;20.40;4.72;;;5.10;99.90;;;;;;5016196;28;25053;-73
2022/02/25 06:30:53;;;;;;;30.95;4.82;;;5.10;99.90;;;;;;5004380;28;25100;-73
2022/02/25 06:33:19;;;;;;;27.92;4.60;;;5.20;99.90;;;;;;5002346;28;25103;-74
2022/02/25 06:35:45;;;;;;;28.65;4.68;;;5.20;99.90;;;;;;4999896;28;25098;-74
2022/02/25 06:38:10;;;;;;;24.30;4.88;;;5.20;99.90;;;;;;4998064;28;25063;-73
2022/02/25 06:40:36;;;;;;;21.50;4.32;;;5.30;99.90;;;;;;5006083;28;25081;-72
2022/02/25 06:43:02;;;;;;;26.85;4.53;;;5.30;99.90;;;;;;4982436;28;25053;-74
2022/02/25 06:45:27;;;;;;;24.63;4.43;;;5.40;99.90;;;;;;4998273;28;25082;-77
2022/02/25 06:47:53;;;;;;;27.63;4.97;;;5.30;99.90;;;;;;5009203;28;25048;-74
2022/02/25 06:50:19;;;;;;;31.55;4.28;;;5.40;99.90;;;;;;5010983;28;25158;-75
2022/02/25 06:52:45;;;;;;;28.77;4.90;;;5.50;99.90;;;;;;5011723;28;25068;-76
2022/02/25 06:55:14;;;;;;;27.25;4.88;;;5.50;99.90;;;;;;5003654;28;25081;-74
2022/02/25 06:57:41;;;;;;;25.13;4.15;;;5.50;99.90;;;;;;4990383;28;25063;-74
2022/02/25 07:00:07;;;;;;;30.95;5.85;;;5.50;99.90;;;;;;5003811;28;25119;-74
2022/02/25 07:02:33;;;;;;;19.27;3.80;;;5.50;99.90;;;;;;5001983;28;25068;-75
2022/02/25 07:04:58;;;;;;;20.45;4.65;;;5.50;99.90;;;;;;5011211;28;25077;-74
2022/02/25 07:07:24;;;;;;;25.77;4.68;;;5.50;99.90;;;;;;5011486;28;25071;-75
2022/02/25 07:09:49;;;;;;;26.33;4.57;;;5.50;99.90;;;;;;4994194;28;25076;-74
2022/02/25 07:12:15;;;;;;;18.33;4.38;;;5.60;99.90;;;;;;5012485;28;25153;-75
2022/02/25 07:14:40;;;;;;;24.38;3.95;;;5.60;99.90;;;;;;4994803;28;25064;-76
2022/02/25 07:17:06;;;;;;;23.30;5.47;;;5.60;99.90;;;;;;5012588;28;25063;-75
2022/02/25 07:19:32;;;;;;;18.08;4.88;;;5.60;99.70;;;;;;5012263;28;25077;-77
2022/02/25 07:21:57;;;;;;;23.40;5.30;;;5.70;99.90;;;;;;5011915;28;25071;-76
2022/02/25 07:24:23;;;;;;;24.17;4.45;;;5.70;99.80;;;;;;5011316;28;25159;-74
2022/02/25 07:26:48;;;;;;;18.98;4.40;;;5.70;99.80;;;;;;5003651;28;25076;-77
2022/02/25 07:29:14;;;;;;;29.38;4.95;;;5.70;99.80;;;;;;5001227;28;25067;-76
2022/02/25 07:31:39;;;;;;;35.95;4.70;;;5.70;99.60;;;;;;4997874;28;25084;-77
2022/02/25 07:34:06;;;;;;;27.83;4.70;;;5.70;99.90;;;;;;5000393;28;25075;-74
2022/02/25 07:36:32;;;;;;;25.42;4.25;;;5.70;99.90;;;;;;5000298;28;25097;-73
2022/02/25 07:38:58;;;;;;;21.90;5.88;;;5.80;99.90;;;;;;4992537;28;25067;-74
2022/02/25 07:41:24;;;;;;;39.58;6.15;;;5.80;99.90;;;;;;5007189;28;25101;-73
2022/02/25 07:43:50;;;;;;;20.30;4.25;;;5.80;99.50;;;;;;5000442;28;25087;-74
2022/02/25 07:46:16;;;;;;;32.42;5.50;;;5.90;99.70;;;;;;4996341;28;25077;-73
2022/02/25 07:48:43;;;;;;;22.42;4.70;;;5.90;99.50;;;;;;5002973;28;25053;-75
2022/02/25 07:51:09;;;;;;;32.40;5.50;;;5.90;99.60;;;;;;4983698;28;25056;-75
2022/02/25 07:53:35;;;;;;;19.08;4.15;;;5.90;99.70;;;;;;5008712;28;25107;-75
2022/02/25 07:56:01;;;;;;;22.45;4.82;;;5.90;99.30;;;;;;5012270;28;25070;-75
2022/02/25 07:58:26;;;;;;;25.90;4.53;;;6.00;99.60;;;;;;5010336;28;25112;-74
2022/02/25 08:00:52;;;;;;;27.80;6.30;;;6.00;99.60;;;;;;4994635;28;25082;-76
2022/02/25 08:03:18;;;;;;;25.17;5.05;;;6.00;99.40;;;;;;5013055;28;25060;-75
2022/02/25 08:05:43;;;;;;;23.88;4.43;;;6.10;99.10;;;;;;5004293;28;25064;-76
2022/02/25 08:08:09;;;;;;;24.05;4.55;;;6.10;99.00;;;;;;5005897;28;25061;-74
2022/02/25 08:10:36;;;;;;;26.92;4.93;;;6.20;99.10;;;;;;5012284;28;25044;-74
2022/02/25 08:13:04;;;;;;;21.83;4.43;;;6.10;99.00;;;;;;5011043;28;25068;-74
2022/02/25 08:15:33;;;;;;;30.08;4.70;;;6.10;99.00;;;;;;5012646;28;25128;-73
2022/02/25 08:17:59;;;;;;;25.75;5.05;;;6.10;98.90;;;;;;4996253;28;25062;-75
2022/02/25 08:20:25;;;;;;;20.65;4.38;;;6.10;98.30;;;;;;5007545;28;25084;-72
2022/02/25 08:22:50;;;;;;;25.08;4.10;;;6.10;98.20;;;;;;5000369;28;25133;-74
2022/02/25 08:25:16;;;;;;;31.35;5.50;;;6.20;98.30;;;;;;4995566;28;25094;-74
2022/02/25 08:27:43;;;;;;;25.83;5.32;;;6.20;98.60;;;;;;5004361;28;25085;-75
2022/02/25 08:30:14;;;;;;;30.58;4.32;;;6.20;98.00;;;;;;4992185;28;25071;-73
2022/02/25 08:32:41;;;;;;;26.98;4.72;;;6.30;98.20;;;;;;5011514;28;25051;-74
2022/02/25 08:35:08;;;;;;;29.50;4.43;;;6.40;97.90;;;;;;5011200;28;25070;-75
2022/02/25 08:37:36;;;;;;;23.52;5.07;;;6.40;97.90;;;;;;5011079;28;25092;-73
2022/02/25 08:40:03;;;;;;;22.73;4.95;;;6.30;97.70;;;;;;5011416;28;25074;-73
2022/02/25 08:42:29;;;;;;;27.45;4.95;;;6.30;97.70;;;;;;5010971;28;25099;-75
2022/02/25 08:44:55;;;;;;;28.80;5.47;;;6.40;97.60;;;;;;5010331;28;25091;-77
2022/02/25 08:47:20;;;;;;;25.98;4.35;;;6.40;97.60;;;;;;5012162;28;25056;-77
2022/02/25 08:49:46;;;;;;;28.98;4.65;;;6.40;97.80;;;;;;5011911;28;25064;-76
2022/02/25 08:52:12;;;;;;;21.90;4.35;;;6.40;97.50;;;;;;4992792;28;25076;-75
2022/02/25 08:54:38;;;;;;;31.42;4.75;;;6.40;97.20;;;;;;5009997;28;25083;-76
2022/02/25 08:57:04;;;;;;;21.45;4.05;;;6.40;97.40;;;;;;5010212;28;25103;-76
2022/02/25 08:59:30;;;;;;;21.60;5.47;;;6.40;97.70;;;;;;5010810;28;25064;-74
2022/02/25 09:01:56;;;;;;;29.60;4.78;;;6.40;97.30;;;;;;5011157;28;25158;-74
2022/02/25 09:04:21;;;;;;;23.05;4.57;;;6.50;97.40;;;;;;5029749;28;25059;-72
2022/02/25 09:06:47;;;;;;;26.33;4.63;;;6.50;97.60;;;;;;5032056;28;25066;-77
2022/02/25 09:09:12;;;;;;;22.73;4.32;;;6.50;97.40;;;;;;5016534;28;25075;-75
2022/02/25 09:11:38;;;;;;;23.77;4.13;;;6.60;97.00;;;;;;5011959;28;25065;-75
2022/02/25 09:14:04;;;;;;;23.10;4.30;;;6.60;96.60;;;;;;4993906;28;25071;-76
2022/02/25 09:16:30;;;;;;;28.38;5.93;;;6.70;97.00;;;;;;4993059;28;25092;-74
2022/02/25 09:18:55;;;;;;;31.35;5.55;;;6.70;96.80;;;;;;5009524;28;25156;-73
2022/02/25 09:21:21;;;;;;;19.58;3.70;;;6.70;96.70;;;;;;5010323;28;25054;-74
2022/02/25 09:23:47;;;;;;;26.75;5.38;;;6.80;96.70;;;;;;4992810;28;25120;-74
2022/02/25 09:26:15;;;;;;;26.90;5.35;;;6.80;96.50;;;;;;4993162;28;25063;-73
2022/02/25 09:28:40;;;;;;;19.83;4.20;;;6.70;96.40;;;;;;5011557;28;25055;-75
2022/02/25 09:31:06;;;;;;;21.05;4.30;;;6.70;96.20;;;;;;5013423;28;25108;-72
2022/02/25 09:33:33;;;;;;;18.42;4.70;;;6.80;96.50;;;;;;4993599;28;25068;-73
2022/02/25 09:35:58;;;;;;;24.58;4.78;;;6.70;96.00;;;;;;5010429;28;25088;-73
2022/02/25 09:38:24;;;;;;;24.25;4.13;;;6.70;96.30;;;;;;5010378;28;25075;-75
2022/02/25 09:40:49;;;;;;;19.23;4.00;;;6.80;96.60;;;;;;5009705;28;25067;-75
2022/02/25 09:43:15;;;;;;;29.23;5.00;;;6.80;96.40;;;;;;5009773;28;25075;-73
2022/02/25 09:45:41;;;;;;;18.27;4.00;;;6.90;96.40;;;;;;5009462;28;25110;-72
2022/02/25 09:48:10;;;;;;;23.67;4.03;;;6.80;95.90;;;;;;5009935;28;25096;-74
2022/02/25 09:50:37;;;;;;;22.45;3.80;;;6.90;96.00;;;;;;5010011;28;25121;-73
2022/02/25 09:53:03;;;;;;;25.33;4.68;;;7.00;96.20;;;;;;5009293;28;25084;-74
2022/02/25 09:55:33;;;;;;;40.00;6.10;;;7.00;96.30;;;;;;5010451;28;25103;-71
2022/02/25 09:58:03;;;;;;;25.30;4.53;;;6.90;96.40;;;;;;5009752;28;25073;-74
2022/02/25 10:00:30;;;;;;;21.67;4.70;;;6.80;96.90;;;;;;5010265;28;25055;-74
2022/02/25 10:03:00;;;;;;;22.55;4.35;;;6.80;97.30;;;;;;5010418;28;25071;-74
2022/02/25 10:05:28;;;;;;;36.92;4.45;;;6.80;97.50;;;;;;5010314;28;25108;-72
2022/02/25 10:07:55;;;;;;;26.50;5.32;;;6.80;97.40;;;;;;5009999;28;25050;-75
2022/02/25 10:10:27;;;;;;;23.20;3.90;;;6.80;97.70;;;;;;5009447;28;25101;-73
2022/02/25 10:12:58;;;;;;;24.23;5.07;;;6.80;97.60;;;;;;5010376;28;25099;-74
2022/02/25 10:15:34;;;;;;;18.67;4.13;;;6.80;97.50;;;;;;5009673;28;25062;-74
2022/02/25 10:18:11;;;;;;;24.25;4.32;;;6.90;97.30;;;;;;4990016;28;25145;-73
2022/02/25 10:20:37;;;;;;;22.23;4.32;;;6.70;97.10;;;;;;4980756;28;25111;-76
2022/02/25 10:23:37;;;;;;;20.52;4.28;;;6.70;97.60;;;;;;5012338;28;25472;-72
2022/02/25 10:26:14;;;;;;;28.05;4.47;;;6.80;98.00;;;;;;4996356;28;25073;-74
2022/02/25 10:28:54;;;;;;;24.00;4.82;;;7.30;98.00;;;;;;5014688;28;25051;-74
2022/02/25 10:31:24;;;;;;;28.80;5.65;;;7.30;96.80;;;;;;5015529;28;25117;-75
2022/02/25 10:34:04;;;;;;;25.55;5.10;;;7.30;96.50;;;;;;5016513;28;25141;-74
2022/02/25 10:36:50;;;;;;;23.02;4.35;;;7.50;96.90;;;;;;5017142;28;25068;-75
2022/02/25 10:39:17;;;;;;;25.40;4.53;;;7.70;95.70;;;;;;5015849;28;25061;-74
2022/02/25 10:42:19;;;;;;;22.80;4.53;;;7.50;95.30;;;;;;4997540;28;25060;-72
2022/02/25 10:44:46;;;;;;;17.05;3.97;;;7.70;95.00;;;;;;5014735;28;25187;-72
2022/02/25 10:47:18;;;;;;;16.90;3.53;;;8.00;93.90;;;;;;5014944;28;25141;-72
2022/02/25 10:49:45;;;;;;;23.47;3.97;;;7.70;92.80;;;;;;5014857;28;25072;-72
2022/02/25 10:52:26;;;;;;;15.95;4.43;;;7.90;92.80;;;;;;5016071;28;25078;-74
2022/02/25 10:54:53;;;;;;;30.83;5.30;;;8.10;92.60;;;;;;5015213;28;25144;-71
2022/02/25 10:57:21;;;;;;;31.60;4.75;;;8.00;92.90;;;;;;5016574;28;25079;-73
2022/02/25 10:59:48;;;;;;;27.77;6.07;;;7.80;93.80;;;;;;5017258;28;25090;-73
2022/02/25 11:02:45;;;;;;;25.25;4.50;;;7.70;94.60;;;;;;5018004;28;25113;-74
2022/02/25 11:05:16;;;;;;;21.38;4.60;;;7.70;93.50;;;;;;5014244;28;25077;-74
2022/02/25 11:07:44;;;;;;;22.67;4.87;;;7.70;93.40;;;;;;5015750;28;25148;-74
2022/02/25 11:10:12;;;;;;;18.70;4.22;;;7.90;93.10;;;;;;5016950;28;25128;-73
2022/02/25 11:12:40;;;;;;;20.90;4.80;;;8.10;92.50;;;;;;5014438;28;25103;-74
2022/02/25 11:15:08;;;;;;;26.45;4.88;;;8.00;92.40;;;;;;5012547;28;25060;-73
2022/02/25 11:17:35;;;;;;;20.95;5.18;;;8.10;92.00;;;;;;4995614;28;25167;-74
2022/02/25 11:20:05;;;;;;;25.23;4.82;;;8.40;91.50;;;;;;5011601;28;25100;-72
2022/02/25 11:22:33;;;;;;;26.90;4.25;;;8.50;91.30;;;;;;5012099;28;25059;-76
2022/02/25 11:24:59;;;;;;;18.05;3.80;;;8.50;91.20;;;;;;5013911;28;25060;-76
2022/02/25 11:27:25;;;;;;;25.88;5.68;;;8.30;91.10;;;;;;5013893;28;25072;-73
2022/02/25 11:29:59;;;;;;;19.65;4.75;;;8.50;90.90;;;;;;5012840;28;25100;-73
2022/02/25 11:32:33;;;;;;;34.92;4.65;;;8.70;90.40;;;;;;5013209;28;25064;-73
2022/02/25 11:34:59;;;;;;;16.52;3.45;;;8.50;90.70;;;;;;5014312;28;25081;-72
2022/02/25 11:37:45;;;;;;;30.42;4.15;;;8.20;90.60;;;;;;5014060;28;25068;-74
2022/02/25 11:40:11;;;;;;;21.55;4.35;;;7.80;90.90;;;;;;5017139;28;25220;-73
2022/02/25 11:42:37;;;;;;;20.27;4.32;;;8.20;91.10;;;;;;5018994;28;25060;-74
2022/02/25 11:45:21;;;;;;;25.73;5.68;;;8.70;91.00;;;;;;5031985;28;25068;-72
2022/02/25 11:47:56;;;;;;;13.63;4.15;;;8.80;88.20;;;;;;5030842;28;25081;-75
2022/02/25 11:50:39;;;;;;;21.27;4.43;;;8.80;89.20;;;;;;5000448;28;25059;-73
2022/02/25 11:53:28;;;;;;;20.83;3.35;;;8.60;89.20;;;;;;5015348;28;25058;-72
2022/02/25 11:55:54;;;;;;;25.40;4.63;;;8.60;88.30;;;;;;5013520;28;25074;-72
2022/02/25 11:58:40;;;;;;;26.85;3.78;;;8.20;89.60;;;;;;5013653;28;25062;-74
2022/02/25 12:01:17;;;;;;;19.17;4.40;;;7.90;90.60;;;;;;5013246;28;25070;-74
2022/02/25 12:04:06;;;;;;;27.83;4.70;;;8.00;91.40;;;;;;5029959;28;25152;-75
2022/02/25 12:07:02;;;;;;;16.17;3.85;;;8.50;90.50;;;;;;4995240;28;25150;-74
2022/02/25 12:09:43;;;;;;;25.15;4.05;;;9.20;90.00;;;;;;5016226;28;25088;-74
2022/02/25 12:12:23;;;;;;;27.23;5.70;;;9.70;87.40;;;;;;5015851;28;25164;-73
2022/02/25 12:15:07;;;;;;;18.45;4.85;;;9.40;88.90;;;;;;5013311;28;25105;-75
2022/02/25 12:17:56;;;;;;;19.85;3.67;;;9.20;90.10;;;;;;5011896;28;25092;-74
2022/02/25 12:20:33;;;;;;;25.33;4.72;;;9.30;90.50;;;;;;5012205;28;25061;-74
2022/02/25 12:23:08;;;;;;;23.45;4.97;;;9.10;88.80;;;;;;5012138;28;25111;-72
2022/02/25 12:25:40;;;;;;;20.23;4.18;;;8.60;89.40;;;;;;5011947;28;25062;-74
2022/02/25 12:28:22;;;;;;;25.08;4.43;;;8.50;90.20;;;;;;5010800;28;25072;-74
2022/02/25 12:30:54;;;;;;;;;;;8.30;90.30;;;;;;5013229;28;25065;-73
2022/02/25 12:33:43;;;;;;;24.13;3.92;;;8.40;90.50;;;;;;5012818;28;24077;-73
2022/02/25 12:36:27;;;;;;;31.70;4.95;;;8.60;90.00;;;;;;4987830;28;25055;-75
2022/02/25 12:39:00;;;;;;;23.35;3.88;;;8.50;90.30;;;;;;5012537;28;25057;-75
2022/02/25 12:41:27;;;;;;;18.08;4.05;;;9.00;89.80;;;;;;5012438;28;25067;-74
2022/02/25 12:44:02;;;;;;;25.23;4.78;;;9.50;89.10;;;;;;5012481;28;25141;-77
2022/02/25 12:46:32;;;;;;;23.95;4.25;;;9.70;87.00;;;;;;5011534;28;25073;-75
2022/02/25 12:48:59;;;;;;;24.40;4.30;;;8.80;89.60;;;;;;5012745;28;25072;-74
2022/02/25 12:51:25;;;;;;;18.65;3.60;;;8.50;90.10;;;;;;5012778;28;25148;-75
2022/02/25 12:53:59;;;;;;;18.65;4.30;;;8.40;90.50;;;;;;5011580;28;25070;-75
2022/02/25 12:56:32;;;;;;;22.92;4.63;;;8.10;90.80;;;;;;4994385;28;25048;-75